Terminal Aerodrome Forecast
Issued by NWS

Home | Current Version | Previous Version | Text Only | Print | Product List | Glossary On
Versions: 1 2 3 4 5 6 7 8 9 10 11 12 13 14 15 16 17 18 19 20 21 22 23 24 25
000
FTUS41 KBUF 212332
TAFIAG
TAF
KIAG 212332Z 2200/2224 21011KT P6SM SKC
     FM220900 20009KT P6SM BKN080
     FM221200 22014G20KT P6SM VCSH BKN035
     FM221600 22020G29KT P6SM VCSH BKN045
     FM221800 23023G34KT 4SM SHRA VCTS BKN040CB
     FM222100 24021G31KT P6SM VCSH BKN080=

USA.gov is the U.S. government's official web portal to all federal, state and local government web resources and services.